McCarley, Mississippi
Current Conditions -  °F | °C
As of 3:08 AM on Thursday 23 Oct 2014 (Local Time) from KGWO Reporting Station
Haze Haze  
Wind Chill: 42°   Ceiling: Unl
Heat Index: 42°   Visibility: 1.7mi
Dew Point: 41°   Wind: 3mph
Humidity: 96%   Direction: 10°N
Pressure: 30.15"   Gusts: NA
Location:  33.52°N, 89.83°W
Report Text: KGWO 230808Z AUTO 01003KT 1 3/4SM BR CLR 06/05 A3015 RMK AO2 T00560050 TSNO
Loading
Personal Weather Stations






























Interactive Weather Map
Tropical Storm Tracking
New forecast layout! Learn more

10-Day Weather Forecast

Advertisements
Track Severe Weather on mobile